sensor_id;sensor_type;location;lat;lon;timestamp;P1;durP1;ratioP1;P2;durP2;ratioP2
9918;SDS011;4998;51.024;13.828;2023-03-01T00:00:04;15.27;;;11.47;;
9918;SDS011;4998;51.024;13.828;2023-03-01T00:09:18;13.03;;;10.30;;
9918;SDS011;4998;51.024;13.828;2023-03-01T00:11:45;14.10;;;9.97;;
9918;SDS011;4998;51.024;13.828;2023-03-01T00:14:12;12.97;;;10.77;;
9918;SDS011;4998;51.024;13.828;2023-03-01T00:16:42;14.30;;;10.70;;
9918;SDS011;4998;51.024;13.828;2023-03-01T00:19:11;15.20;;;10.80;;
9918;SDS011;4998;51.024;13.828;2023-03-01T00:21:40;14.00;;;10.20;;
9918;SDS011;4998;51.024;13.828;2023-03-01T00:24:08;17.30;;;10.90;;
9918;SDS011;4998;51.024;13.828;2023-03-01T00:26:37;15.20;;;10.20;;
9918;SDS011;4998;51.024;13.828;2023-03-01T00:29:04;12.67;;;8.93;;
9918;SDS011;4998;51.024;13.828;2023-03-01T00:31:32;12.40;;;9.40;;
9918;SDS011;4998;51.024;13.828;2023-03-01T00:34:00;15.40;;;9.83;;
9918;SDS011;4998;51.024;13.828;2023-03-01T00:36:29;14.53;;;10.20;;
9918;SDS011;4998;51.024;13.828;2023-03-01T00:38:58;13.80;;;9.50;;
9918;SDS011;4998;51.024;13.828;2023-03-01T00:41:25;17.33;;;9.67;;
9918;SDS011;4998;51.024;13.828;2023-03-01T00:43:54;13.57;;;9.90;;
9918;SDS011;4998;51.024;13.828;2023-03-01T00:46:21;13.97;;;9.33;;
9918;SDS011;4998;51.024;13.828;2023-03-01T00:48:50;13.97;;;10.00;;
9918;SDS011;4998;51.024;13.828;2023-03-01T00:51:18;13.70;;;9.90;;
9918;SDS011;4998;51.024;13.828;2023-03-01T00:53:46;15.50;;;10.00;;
9918;SDS011;4998;51.024;13.828;2023-03-01T00:56:14;13.67;;;9.77;;
9918;SDS011;4998;51.024;13.828;2023-03-01T00:58:41;13.57;;;9.67;;
9918;SDS011;4998;51.024;13.828;2023-03-01T01:01:11;11.63;;;9.20;;
9918;SDS011;4998;51.024;13.828;2023-03-01T01:03:44;13.57;;;9.87;;
9918;SDS011;4998;51.024;13.828;2023-03-01T01:06:16;16.17;;;9.70;;
9918;SDS011;4998;51.024;13.828;2023-03-01T01:08:44;15.10;;;10.57;;
9918;SDS011;4998;51.024;13.828;2023-03-01T01:11:12;13.17;;;10.27;;
9918;SDS011;4998;51.024;13.828;2023-03-01T01:13:39;15.90;;;9.57;;
9918;SDS011;4998;51.024;13.828;2023-03-01T01:16:07;12.90;;;9.27;;
9918;SDS011;4998;51.024;13.828;2023-03-01T01:18:35;14.53;;;9.90;;
9918;SDS011;4998;51.024;13.828;2023-03-01T01:21:03;12.47;;;9.47;;
9918;SDS011;4998;51.024;13.828;2023-03-01T01:23:32;14.77;;;9.73;;
9918;SDS011;4998;51.024;13.828;2023-03-01T01:26:03;13.87;;;10.37;;
9918;SDS011;4998;51.024;13.828;2023-03-01T01:28:31;14.90;;;10.37;;
9918;SDS011;4998;51.024;13.828;2023-03-01T01:30:58;14.00;;;9.83;;
9918;SDS011;4998;51.024;13.828;2023-03-01T01:33:25;15.03;;;10.13;;
9918;SDS011;4998;51.024;13.828;2023-03-01T01:35:54;12.40;;;9.53;;
9918;SDS011;4998;51.024;13.828;2023-03-01T01:38:21;13.77;;;9.63;;
9918;SDS011;4998;51.024;13.828;2023-03-01T01:40:48;15.20;;;9.90;;
9918;SDS011;4998;51.024;13.828;2023-03-01T01:43:20;14.60;;;10.20;;
9918;SDS011;4998;51.024;13.828;2023-03-01T01:45:49;13.87;;;10.47;;
9918;SDS011;4998;51.024;13.828;2023-03-01T01:48:18;15.60;;;10.90;;
9918;SDS011;4998;51.024;13.828;2023-03-01T01:50:49;16.03;;;11.20;;
9918;SDS011;4998;51.024;13.828;2023-03-01T01:53:23;14.57;;;11.03;;
9918;SDS011;4998;51.024;13.828;2023-03-01T01:55:51;14.70;;;10.77;;
9918;SDS011;4998;51.024;13.828;2023-03-01T01:58:22;13.53;;;10.73;;
9918;SDS011;4998;51.024;13.828;2023-03-01T02:00:52;14.83;;;10.87;;
9918;SDS011;4998;51.024;13.828;2023-03-01T02:03:22;14.60;;;11.20;;
9918;SDS011;4998;51.024;13.828;2023-03-01T02:05:55;14.87;;;10.73;;
9918;SDS011;4998;51.024;13.828;2023-03-01T02:08:28;14.07;;;10.20;;
9918;SDS011;4998;51.024;13.828;2023-03-01T02:10:59;15.30;;;10.70;;
9918;SDS011;4998;51.024;13.828;2023-03-01T02:13:29;13.00;;;10.03;;
9918;SDS011;4998;51.024;13.828;2023-03-01T02:15:57;15.17;;;10.47;;
9918;SDS011;4998;51.024;13.828;2023-03-01T02:18:25;13.43;;;9.70;;
9918;SDS011;4998;51.024;13.828;2023-03-01T02:20:59;11.60;;;9.27;;
9918;SDS011;4998;51.024;13.828;2023-03-01T02:23:38;13.40;;;9.60;;
9918;SDS011;4998;51.024;13.828;2023-03-01T02:26:07;15.53;;;11.10;;
9918;SDS011;4998;51.024;13.828;2023-03-01T02:28:42;14.63;;;10.17;;
9918;SDS011;4998;51.024;13.828;2023-03-01T02:31:11;13.37;;;9.07;;
9918;SDS011;4998;51.024;13.828;2023-03-01T02:34:00;14.70;;;10.00;;
9918;SDS011;4998;51.024;13.828;2023-03-01T02:36:30;12.90;;;9.47;;
9918;SDS011;4998;51.024;13.828;2023-03-01T02:39:03;14.73;;;9.67;;
9918;SDS011;4998;51.024;13.828;2023-03-01T02:41:39;11.87;;;9.00;;
9918;SDS011;4998;51.024;13.828;2023-03-01T02:44:11;14.80;;;9.40;;
9918;SDS011;4998;51.024;13.828;2023-03-01T02:46:42;13.77;;;10.47;;
9918;SDS011;4998;51.024;13.828;2023-03-01T02:49:18;16.23;;;9.80;;
9918;SDS011;4998;51.024;13.828;2023-03-01T02:51:48;11.73;;;8.93;;
9918;SDS011;4998;51.024;13.828;2023-03-01T02:54:27;12.23;;;9.23;;
9918;SDS011;4998;51.024;13.828;2023-03-01T02:56:59;14.50;;;9.00;;
9918;SDS011;4998;51.024;13.828;2023-03-01T02:59:30;11.53;;;8.90;;
9918;SDS011;4998;51.024;13.828;2023-03-01T03:02:04;14.60;;;8.90;;
9918;SDS011;4998;51.024;13.828;2023-03-01T03:04:31;11.73;;;9.40;;
9918;SDS011;4998;51.024;13.828;2023-03-01T03:06:58;10.87;;;8.77;;
9918;SDS011;4998;51.024;13.828;2023-03-01T03:09:25;13.97;;;9.57;;
9918;SDS011;4998;51.024;13.828;2023-03-01T03:11:53;12.10;;;9.13;;
9918;SDS011;4998;51.024;13.828;2023-03-01T03:14:20;12.13;;;8.80;;
9918;SDS011;4998;51.024;13.828;2023-03-01T03:16:49;16.60;;;10.00;;
9918;SDS011;4998;51.024;13.828;2023-03-01T03:19:17;12.60;;;10.00;;
9918;SDS011;4998;51.024;13.828;2023-03-01T03:21:45;12.50;;;9.40;;
9918;SDS011;4998;51.024;13.828;2023-03-01T03:24:12;14.13;;;9.10;;
9918;SDS011;4998;51.024;13.828;2023-03-01T03:26:39;14.13;;;10.80;;
9918;SDS011;4998;51.024;13.828;2023-03-01T03:29:06;15.57;;;9.37;;
9918;SDS011;4998;51.024;13.828;2023-03-01T03:31:33;12.90;;;8.77;;
9918;SDS011;4998;51.024;13.828;2023-03-01T03:34:01;13.00;;;9.70;;
9918;SDS011;4998;51.024;13.828;2023-03-01T03:36:28;12.67;;;9.00;;
9918;SDS011;4998;51.024;13.828;2023-03-01T03:38:55;14.53;;;9.67;;
9918;SDS011;4998;51.024;13.828;2023-03-01T03:41:22;11.70;;;9.67;;
9918;SDS011;4998;51.024;13.828;2023-03-01T03:43:49;17.70;;;9.73;;
9918;SDS011;4998;51.024;13.828;2023-03-01T03:46:16;12.40;;;9.30;;
9918;SDS011;4998;51.024;13.828;2023-03-01T03:48:44;14.27;;;9.17;;
9918;SDS011;4998;51.024;13.828;2023-03-01T03:51:13;13.10;;;9.33;;
9918;SDS011;4998;51.024;13.828;2023-03-01T03:53:42;12.87;;;9.80;;
9918;SDS011;4998;51.024;13.828;2023-03-01T03:56:09;12.53;;;9.17;;
9918;SDS011;4998;51.024;13.828;2023-03-01T03:58:37;13.40;;;8.80;;
9918;SDS011;4998;51.024;13.828;2023-03-01T04:01:04;12.03;;;9.07;;
9918;SDS011;4998;51.024;13.828;2023-03-01T04:03:32;12.93;;;9.20;;
9918;SDS011;4998;51.024;13.828;2023-03-01T04:06:00;11.63;;;9.53;;
9918;SDS011;4998;51.024;13.828;2023-03-01T04:08:30;13.00;;;9.80;;
9918;SDS011;4998;51.024;13.828;2023-03-01T04:10:58;13.67;;;9.90;;
9918;SDS011;4998;51.024;13.828;2023-03-01T04:13:46;13.50;;;9.40;;
9918;SDS011;4998;51.024;13.828;2023-03-01T04:16:13;12.47;;;9.20;;
9918;SDS011;4998;51.024;13.828;2023-03-01T04:18:40;11.90;;;9.20;;
9918;SDS011;4998;51.024;13.828;2023-03-01T04:21:07;12.63;;;9.30;;
9918;SDS011;4998;51.024;13.828;2023-03-01T04:23:36;11.90;;;9.30;;
9918;SDS011;4998;51.024;13.828;2023-03-01T04:26:05;17.43;;;10.00;;
9918;SDS011;4998;51.024;13.828;2023-03-01T04:28:33;13.43;;;9.47;;
9918;SDS011;4998;51.024;13.828;2023-03-01T04:31:02;11.40;;;9.17;;
9918;SDS011;4998;51.024;13.828;2023-03-01T04:33:38;10.67;;;9.10;;
9918;SDS011;4998;51.024;13.828;2023-03-01T04:36:07;13.80;;;10.00;;
9918;SDS011;4998;51.024;13.828;2023-03-01T04:38:36;12.77;;;9.60;;
9918;SDS011;4998;51.024;13.828;2023-03-01T04:41:04;12.70;;;9.30;;
9918;SDS011;4998;51.024;13.828;2023-03-01T04:43:32;10.30;;;8.83;;
9918;SDS011;4998;51.024;13.828;2023-03-01T04:46:00;12.10;;;9.30;;
9918;SDS011;4998;51.024;13.828;2023-03-01T04:48:29;17.00;;;9.43;;
9918;SDS011;4998;51.024;13.828;2023-03-01T04:50:57;12.50;;;9.10;;
9918;SDS011;4998;51.024;13.828;2023-03-01T04:53:25;13.50;;;9.70;;
9918;SDS011;4998;51.024;13.828;2023-03-01T04:55:55;12.80;;;10.10;;
9918;SDS011;4998;51.024;13.828;2023-03-01T04:58:22;14.03;;;9.60;;
9918;SDS011;4998;51.024;13.828;2023-03-01T05:00:50;10.63;;;8.80;;
9918;SDS011;4998;51.024;13.828;2023-03-01T05:03:17;13.30;;;9.57;;
9918;SDS011;4998;51.024;13.828;2023-03-01T05:05:46;13.10;;;10.30;;
9918;SDS011;4998;51.024;13.828;2023-03-01T05:08:14;11.40;;;9.30;;
9918;SDS011;4998;51.024;13.828;2023-03-01T05:10:44;14.13;;;9.77;;
9918;SDS011;4998;51.024;13.828;2023-03-01T05:13:14;11.47;;;8.57;;
9918;SDS011;4998;51.024;13.828;2023-03-01T05:15:46;12.67;;;9.80;;
9918;SDS011;4998;51.024;13.828;2023-03-01T05:18:14;13.40;;;9.20;;
9918;SDS011;4998;51.024;13.828;2023-03-01T05:20:41;10.13;;;8.23;;
9918;SDS011;4998;51.024;13.828;2023-03-01T05:23:09;11.60;;;8.80;;
9918;SDS011;4998;51.024;13.828;2023-03-01T05:25:37;13.37;;;8.90;;
9918;SDS011;4998;51.024;13.828;2023-03-01T05:28:06;11.50;;;8.90;;
9918;SDS011;4998;51.024;13.828;2023-03-01T05:30:37;12.50;;;10.00;;
9918;SDS011;4998;51.024;13.828;2023-03-01T05:33:05;14.33;;;9.53;;
9918;SDS011;4998;51.024;13.828;2023-03-01T05:35:38;13.23;;;8.70;;
9918;SDS011;4998;51.024;13.828;2023-03-01T05:38:06;15.13;;;9.67;;
9918;SDS011;4998;51.024;13.828;2023-03-01T05:40:33;13.00;;;9.20;;
9918;SDS011;4998;51.024;13.828;2023-03-01T05:43:01;12.30;;;9.10;;
9918;SDS011;4998;51.024;13.828;2023-03-01T05:45:30;12.17;;;8.70;;
9918;SDS011;4998;51.024;13.828;2023-03-01T05:47:59;13.50;;;9.40;;
9918;SDS011;4998;51.024;13.828;2023-03-01T05:50:27;12.80;;;8.67;;
9918;SDS011;4998;51.024;13.828;2023-03-01T05:52:59;11.70;;;8.70;;
9918;SDS011;4998;51.024;13.828;2023-03-01T05:55:27;16.20;;;10.20;;
9918;SDS011;4998;51.024;13.828;2023-03-01T05:57:57;11.40;;;9.07;;
9918;SDS011;4998;51.024;13.828;2023-03-01T06:00:25;13.20;;;10.13;;
9918;SDS011;4998;51.024;13.828;2023-03-01T06:02:53;14.00;;;9.20;;
9918;SDS011;4998;51.024;13.828;2023-03-01T06:05:22;13.27;;;9.80;;
9918;SDS011;4998;51.024;13.828;2023-03-01T06:07:50;12.90;;;9.97;;
9918;SDS011;4998;51.024;13.828;2023-03-01T06:10:18;13.43;;;9.37;;
9918;SDS011;4998;51.024;13.828;2023-03-01T06:12:46;16.07;;;8.90;;
9918;SDS011;4998;51.024;13.828;2023-03-01T06:15:14;13.27;;;9.80;;
9918;SDS011;4998;51.024;13.828;2023-03-01T06:17:42;14.43;;;8.93;;
9918;SDS011;4998;51.024;13.828;2023-03-01T06:20:12;15.43;;;8.90;;
9918;SDS011;4998;51.024;13.828;2023-03-01T06:22:43;15.30;;;10.43;;
9918;SDS011;4998;51.024;13.828;2023-03-01T06:25:11;11.73;;;8.40;;
9918;SDS011;4998;51.024;13.828;2023-03-01T06:27:40;13.90;;;9.23;;
9918;SDS011;4998;51.024;13.828;2023-03-01T06:30:11;11.40;;;8.93;;
9918;SDS011;4998;51.024;13.828;2023-03-01T06:32:40;11.80;;;9.10;;
9918;SDS011;4998;51.024;13.828;2023-03-01T06:35:08;11.53;;;8.47;;
9918;SDS011;4998;51.024;13.828;2023-03-01T06:37:36;12.73;;;9.70;;
9918;SDS011;4998;51.024;13.828;2023-03-01T06:40:05;10.53;;;8.70;;
9918;SDS011;4998;51.024;13.828;2023-03-01T06:42:34;14.93;;;9.80;;
9918;SDS011;4998;51.024;13.828;2023-03-01T06:45:01;12.17;;;9.03;;
9918;SDS011;4998;51.024;13.828;2023-03-01T06:47:29;12.43;;;8.70;;
9918;SDS011;4998;51.024;13.828;2023-03-01T06:49:58;11.50;;;8.70;;
9918;SDS011;4998;51.024;13.828;2023-03-01T06:52:25;11.93;;;8.77;;
9918;SDS011;4998;51.024;13.828;2023-03-01T06:54:52;12.00;;;9.10;;
9918;SDS011;4998;51.024;13.828;2023-03-01T06:57:20;10.23;;;8.43;;
9918;SDS011;4998;51.024;13.828;2023-03-01T06:59:48;14.70;;;9.03;;
9918;SDS011;4998;51.024;13.828;2023-03-01T07:02:15;12.27;;;9.40;;
9918;SDS011;4998;51.024;13.828;2023-03-01T07:04:42;17.97;;;9.83;;
9918;SDS011;4998;51.024;13.828;2023-03-01T07:07:09;16.80;;;8.93;;
9918;SDS011;4998;51.024;13.828;2023-03-01T07:09:37;15.03;;;9.50;;
9918;SDS011;4998;51.024;13.828;2023-03-01T07:12:04;11.63;;;8.90;;
9918;SDS011;4998;51.024;13.828;2023-03-01T07:14:33;11.30;;;9.33;;
9918;SDS011;4998;51.024;13.828;2023-03-01T07:17:00;12.70;;;9.10;;
9918;SDS011;4998;51.024;13.828;2023-03-01T07:19:27;12.90;;;9.33;;
9918;SDS011;4998;51.024;13.828;2023-03-01T07:21:54;12.07;;;9.27;;
9918;SDS011;4998;51.024;13.828;2023-03-01T07:24:21;11.60;;;9.20;;
9918;SDS011;4998;51.024;13.828;2023-03-01T07:26:49;11.70;;;8.47;;
9918;SDS011;4998;51.024;13.828;2023-03-01T07:29:16;11.97;;;9.60;;
9918;SDS011;4998;51.024;13.828;2023-03-01T07:31:45;12.43;;;9.63;;
9918;SDS011;4998;51.024;13.828;2023-03-01T07:34:12;14.17;;;9.90;;
9918;SDS011;4998;51.024;13.828;2023-03-01T07:36:39;12.57;;;9.90;;
9918;SDS011;4998;51.024;13.828;2023-03-01T07:39:08;13.70;;;9.47;;
9918;SDS011;4998;51.024;13.828;2023-03-01T07:41:35;15.10;;;9.87;;
9918;SDS011;4998;51.024;13.828;2023-03-01T07:44:03;11.43;;;8.83;;
9918;SDS011;4998;51.024;13.828;2023-03-01T07:46:30;12.70;;;9.70;;
9918;SDS011;4998;51.024;13.828;2023-03-01T07:48:59;14.67;;;10.33;;
9918;SDS011;4998;51.024;13.828;2023-03-01T07:51:26;12.67;;;9.33;;
9918;SDS011;4998;51.024;13.828;2023-03-01T07:53:53;12.13;;;9.57;;
9918;SDS011;4998;51.024;13.828;2023-03-01T07:56:20;12.30;;;9.90;;
9918;SDS011;4998;51.024;13.828;2023-03-01T07:58:47;13.47;;;9.47;;
9918;SDS011;4998;51.024;13.828;2023-03-01T08:01:15;11.73;;;9.03;;
9918;SDS011;4998;51.024;13.828;2023-03-01T08:03:43;12.23;;;9.90;;
9918;SDS011;4998;51.024;13.828;2023-03-01T08:06:12;18.27;;;9.87;;
9918;SDS011;4998;51.024;13.828;2023-03-01T08:08:41;12.23;;;9.07;;
9918;SDS011;4998;51.024;13.828;2023-03-01T08:11:10;11.30;;;9.10;;
9918;SDS011;4998;51.024;13.828;2023-03-01T08:13:38;14.27;;;9.60;;
9918;SDS011;4998;51.024;13.828;2023-03-01T08:16:06;14.80;;;9.83;;
9918;SDS011;4998;51.024;13.828;2023-03-01T08:18:35;14.67;;;10.90;;
9918;SDS011;4998;51.024;13.828;2023-03-01T08:21:03;14.30;;;9.90;;
9918;SDS011;4998;51.024;13.828;2023-03-01T08:23:33;14.17;;;10.90;;
9918;SDS011;4998;51.024;13.828;2023-03-01T08:26:04;15.50;;;10.70;;
9918;SDS011;4998;51.024;13.828;2023-03-01T08:28:32;14.20;;;10.50;;
9918;SDS011;4998;51.024;13.828;2023-03-01T08:31:00;14.40;;;10.33;;
9918;SDS011;4998;51.024;13.828;2023-03-01T08:33:27;14.87;;;10.70;;
9918;SDS011;4998;51.024;13.828;2023-03-01T08:36:01;14.17;;;10.27;;
9918;SDS011;4998;51.024;13.828;2023-03-01T08:38:29;17.03;;;10.90;;
9918;SDS011;4998;51.024;13.828;2023-03-01T08:41:00;13.20;;;10.23;;
9918;SDS011;4998;51.024;13.828;2023-03-01T08:43:27;11.97;;;10.17;;
9918;SDS011;4998;51.024;13.828;2023-03-01T08:45:55;15.90;;;10.73;;
9918;SDS011;4998;51.024;13.828;2023-03-01T08:48:22;14.07;;;10.60;;
9918;SDS011;4998;51.024;13.828;2023-03-01T08:50:49;13.33;;;9.40;;
9918;SDS011;4998;51.024;13.828;2023-03-01T08:53:16;14.57;;;11.20;;
9918;SDS011;4998;51.024;13.828;2023-03-01T08:55:43;14.83;;;10.90;;
9918;SDS011;4998;51.024;13.828;2023-03-01T08:58:11;14.03;;;10.80;;
9918;SDS011;4998;51.024;13.828;2023-03-01T09:00:38;14.13;;;10.80;;
9918;SDS011;4998;51.024;13.828;2023-03-01T09:03:05;16.20;;;11.67;;
9918;SDS011;4998;51.024;13.828;2023-03-01T09:05:32;15.40;;;11.10;;
9918;SDS011;4998;51.024;13.828;2023-03-01T09:08:01;14.27;;;11.13;;
9918;SDS011;4998;51.024;13.828;2023-03-01T09:10:29;17.83;;;12.77;;
9918;SDS011;4998;51.024;13.828;2023-03-01T09:12:56;15.57;;;11.27;;
9918;SDS011;4998;51.024;13.828;2023-03-01T09:15:24;16.70;;;12.10;;
9918;SDS011;4998;51.024;13.828;2023-03-01T09:17:51;18.90;;;13.03;;
9918;SDS011;4998;51.024;13.828;2023-03-01T09:20:18;15.63;;;11.97;;
9918;SDS011;4998;51.024;13.828;2023-03-01T09:22:46;16.57;;;12.30;;
9918;SDS011;4998;51.024;13.828;2023-03-01T09:25:13;16.13;;;12.07;;
9918;SDS011;4998;51.024;13.828;2023-03-01T09:27:40;17.17;;;12.57;;
9918;SDS011;4998;51.024;13.828;2023-03-01T09:30:07;17.27;;;11.90;;
9918;SDS011;4998;51.024;13.828;2023-03-01T09:32:36;18.30;;;13.23;;
9918;SDS011;4998;51.024;13.828;2023-03-01T09:35:08;17.03;;;12.87;;
9918;SDS011;4998;51.024;13.828;2023-03-01T09:37:35;20.80;;;13.70;;
9918;SDS011;4998;51.024;13.828;2023-03-01T09:40:03;17.70;;;12.87;;
9918;SDS011;4998;51.024;13.828;2023-03-01T09:42:32;16.73;;;11.90;;
9918;SDS011;4998;51.024;13.828;2023-03-01T09:45:03;16.17;;;13.03;;
9918;SDS011;4998;51.024;13.828;2023-03-01T09:47:32;18.50;;;13.60;;
9918;SDS011;4998;51.024;13.828;2023-03-01T09:50:04;19.53;;;13.47;;
9918;SDS011;4998;51.024;13.828;2023-03-01T09:52:38;16.93;;;12.30;;
9918;SDS011;4998;51.024;13.828;2023-03-01T09:55:11;21.73;;;13.57;;
9918;SDS011;4998;51.024;13.828;2023-03-01T09:57:41;17.40;;;12.83;;
9918;SDS011;4998;51.024;13.828;2023-03-01T10:00:16;16.20;;;12.07;;
9918;SDS011;4998;51.024;13.828;2023-03-01T10:03:06;20.50;;;14.63;;
9918;SDS011;4998;51.024;13.828;2023-03-01T10:05:43;18.17;;;13.60;;
9918;SDS011;4998;51.024;13.828;2023-03-01T10:08:27;17.90;;;12.47;;
9918;SDS011;4998;51.024;13.828;2023-03-01T10:11:01;18.27;;;13.30;;
9918;SDS011;4998;51.024;13.828;2023-03-01T10:13:33;20.17;;;14.17;;
9918;SDS011;4998;51.024;13.828;2023-03-01T10:16:10;17.37;;;13.33;;
9918;SDS011;4998;51.024;13.828;2023-03-01T10:18:41;17.00;;;12.80;;
9918;SDS011;4998;51.024;13.828;2023-03-01T10:21:15;19.07;;;12.93;;
9918;SDS011;4998;51.024;13.828;2023-03-01T10:23:44;17.87;;;13.13;;
9918;SDS011;4998;51.024;13.828;2023-03-01T10:26:14;19.07;;;13.53;;
9918;SDS011;4998;51.024;13.828;2023-03-01T10:29:00;15.67;;;11.77;;
9918;SDS011;4998;51.024;13.828;2023-03-01T10:31:32;17.87;;;12.73;;
9918;SDS011;4998;51.024;13.828;2023-03-01T10:34:08;17.13;;;12.50;;
9918;SDS011;4998;51.024;13.828;2023-03-01T10:36:38;17.97;;;13.03;;
9918;SDS011;4998;51.024;13.828;2023-03-01T10:39:11;16.83;;;12.57;;
9918;SDS011;4998;51.024;13.828;2023-03-01T10:41:45;16.57;;;11.63;;
9918;SDS011;4998;51.024;13.828;2023-03-01T10:47:17;14.30;;;11.30;;
9918;SDS011;4998;51.024;13.828;2023-03-01T10:49:53;16.50;;;11.63;;
9918;SDS011;4998;51.024;13.828;2023-03-01T10:52:24;16.87;;;12.77;;
9918;SDS011;4998;51.024;13.828;2023-03-01T10:54:57;17.03;;;12.37;;
9918;SDS011;4998;51.024;13.828;2023-03-01T10:57:31;16.60;;;12.30;;
9918;SDS011;4998;51.024;13.828;2023-03-01T11:02:51;16.10;;;11.43;;
9918;SDS011;4998;51.024;13.828;2023-03-01T11:05:30;12.90;;;9.83;;
9918;SDS011;4998;51.024;13.828;2023-03-01T11:08:00;12.87;;;10.93;;
9918;SDS011;4998;51.024;13.828;2023-03-01T11:10:28;15.37;;;11.40;;
9918;SDS011;4998;51.024;13.828;2023-03-01T11:13:07;14.23;;;11.67;;
9918;SDS011;4998;51.024;13.828;2023-03-01T11:15:39;16.63;;;11.67;;
9918;SDS011;4998;51.024;13.828;2023-03-01T11:18:15;15.63;;;11.40;;
9918;SDS011;4998;51.024;13.828;2023-03-01T11:20:45;13.50;;;11.10;;
9918;SDS011;4998;51.024;13.828;2023-03-01T11:23:15;16.43;;;11.20;;
9918;SDS011;4998;51.024;13.828;2023-03-01T11:25:43;15.47;;;10.97;;
9918;SDS011;4998;51.024;13.828;2023-03-01T11:28:14;13.57;;;10.43;;
9918;SDS011;4998;51.024;13.828;2023-03-01T11:30:44;13.93;;;9.93;;
9918;SDS011;4998;51.024;13.828;2023-03-01T11:33:17;15.23;;;10.47;;
9918;SDS011;4998;51.024;13.828;2023-03-01T11:35:53;13.97;;;10.77;;
9918;SDS011;4998;51.024;13.828;2023-03-01T11:38:29;17.10;;;12.10;;
9918;SDS011;4998;51.024;13.828;2023-03-01T11:41:01;18.80;;;12.80;;
9918;SDS011;4998;51.024;13.828;2023-03-01T11:43:33;17.27;;;12.10;;
9918;SDS011;4998;51.024;13.828;2023-03-01T11:46:16;18.60;;;13.20;;
9918;SDS011;4998;51.024;13.828;2023-03-01T11:48:58;13.60;;;11.07;;
9918;SDS011;4998;51.024;13.828;2023-03-01T11:51:41;14.97;;;11.03;;
9918;SDS011;4998;51.024;13.828;2023-03-01T11:54:17;13.80;;;10.73;;
9918;SDS011;4998;51.024;13.828;2023-03-01T11:56:55;15.93;;;11.40;;
9918;SDS011;4998;51.024;13.828;2023-03-01T11:59:40;13.07;;;10.50;;
9918;SDS011;4998;51.024;13.828;2023-03-01T12:02:33;13.40;;;10.97;;
9918;SDS011;4998;51.024;13.828;2023-03-01T12:05:20;13.97;;;11.17;;
9918;SDS011;4998;51.024;13.828;2023-03-01T12:07:56;14.10;;;10.40;;
9918;SDS011;4998;51.024;13.828;2023-03-01T12:10:35;15.40;;;11.00;;
9918;SDS011;4998;51.024;13.828;2023-03-01T12:13:28;16.33;;;11.37;;
9918;SDS011;4998;51.024;13.828;2023-03-01T12:16:25;19.03;;;13.10;;
9918;SDS011;4998;51.024;13.828;2023-03-01T12:19:12;21.80;;;12.20;;
9918;SDS011;4998;51.024;13.828;2023-03-01T12:21:57;15.80;;;13.17;;
9918;SDS011;4998;51.024;13.828;2023-03-01T12:24:57;18.93;;;13.33;;
9918;SDS011;4998;51.024;13.828;2023-03-01T12:30:33;17.27;;;12.43;;
9918;SDS011;4998;51.024;13.828;2023-03-01T12:33:15;19.53;;;13.70;;
9918;SDS011;4998;51.024;13.828;2023-03-01T12:35:51;18.30;;;12.87;;
9918;SDS011;4998;51.024;13.828;2023-03-01T12:38:32;18.80;;;12.80;;
9918;SDS011;4998;51.024;13.828;2023-03-01T12:41:06;17.30;;;12.50;;
9918;SDS011;4998;51.024;13.828;2023-03-01T12:43:58;17.23;;;12.17;;
9918;SDS011;4998;51.024;13.828;2023-03-01T12:46:41;18.77;;;13.03;;
9918;SDS011;4998;51.024;13.828;2023-03-01T12:49:19;17.47;;;13.70;;
9918;SDS011;4998;51.024;13.828;2023-03-01T12:51:51;18.50;;;13.07;;
9918;SDS011;4998;51.024;13.828;2023-03-01T12:54:26;21.40;;;14.70;;
9918;SDS011;4998;51.024;13.828;2023-03-01T12:56:55;17.63;;;13.57;;
9918;SDS011;4998;51.024;13.828;2023-03-01T12:59:28;15.80;;;12.93;;
9918;SDS011;4998;51.024;13.828;2023-03-01T13:02:02;18.07;;;14.10;;
9918;SDS011;4998;51.024;13.828;2023-03-01T13:04:43;19.57;;;14.77;;
9918;SDS011;4998;51.024;13.828;2023-03-01T13:07:25;19.00;;;14.33;;
9918;SDS011;4998;51.024;13.828;2023-03-01T13:10:00;18.80;;;13.60;;
9918;SDS011;4998;51.024;13.828;2023-03-01T13:12:49;21.50;;;14.90;;
9918;SDS011;4998;51.024;13.828;2023-03-01T13:15:26;18.23;;;14.30;;
9918;SDS011;4998;51.024;13.828;2023-03-01T13:17:55;18.47;;;13.70;;
9918;SDS011;4998;51.024;13.828;2023-03-01T13:20:24;18.90;;;13.23;;
9918;SDS011;4998;51.024;13.828;2023-03-01T13:23:09;18.23;;;13.13;;
9918;SDS011;4998;51.024;13.828;2023-03-01T13:25:59;17.43;;;13.20;;
9918;SDS011;4998;51.024;13.828;2023-03-01T13:28:36;19.07;;;12.93;;
9918;SDS011;4998;51.024;13.828;2023-03-01T13:37:30;13.90;;;11.40;;
9918;SDS011;4998;51.024;13.828;2023-03-01T13:40:04;15.87;;;11.60;;
9918;SDS011;4998;51.024;13.828;2023-03-01T13:42:47;15.40;;;11.50;;
9918;SDS011;4998;51.024;13.828;2023-03-01T13:45:18;16.20;;;12.20;;
9918;SDS011;4998;51.024;13.828;2023-03-01T13:47:49;18.13;;;13.27;;
9918;SDS011;4998;51.024;13.828;2023-03-01T13:50:22;19.23;;;13.33;;
9918;SDS011;4998;51.024;13.828;2023-03-01T13:52:52;17.57;;;12.10;;
9918;SDS011;4998;51.024;13.828;2023-03-01T13:55:23;16.67;;;12.47;;
9918;SDS011;4998;51.024;13.828;2023-03-01T13:57:57;14.90;;;11.80;;
9918;SDS011;4998;51.024;13.828;2023-03-01T14:00:27;16.90;;;11.90;;
9918;SDS011;4998;51.024;13.828;2023-03-01T14:02:59;16.73;;;12.50;;
9918;SDS011;4998;51.024;13.828;2023-03-01T14:05:30;17.67;;;12.63;;
9918;SDS011;4998;51.024;13.828;2023-03-01T14:07:57;19.67;;;13.20;;
9918;SDS011;4998;51.024;13.828;2023-03-01T14:10:25;17.40;;;12.90;;
9918;SDS011;4998;51.024;13.828;2023-03-01T14:13:00;17.80;;;13.00;;
9918;SDS011;4998;51.024;13.828;2023-03-01T14:15:34;15.50;;;12.17;;
9918;SDS011;4998;51.024;13.828;2023-03-01T14:18:06;21.73;;;12.47;;
9918;SDS011;4998;51.024;13.828;2023-03-01T14:20:43;20.63;;;13.33;;
9918;SDS011;4998;51.024;13.828;2023-03-01T14:23:18;18.40;;;13.07;;
9918;SDS011;4998;51.024;13.828;2023-03-01T14:25:47;18.50;;;13.77;;
9918;SDS011;4998;51.024;13.828;2023-03-01T14:28:16;18.07;;;12.67;;
9918;SDS011;4998;51.024;13.828;2023-03-01T14:30:46;16.57;;;12.47;;
9918;SDS011;4998;51.024;13.828;2023-03-01T14:33:18;17.23;;;12.77;;
9918;SDS011;4998;51.024;13.828;2023-03-01T14:35:59;19.10;;;12.53;;
9918;SDS011;4998;51.024;13.828;2023-03-01T14:38:29;14.70;;;11.53;;
9918;SDS011;4998;51.024;13.828;2023-03-01T14:41:01;16.77;;;12.23;;
9918;SDS011;4998;51.024;13.828;2023-03-01T14:43:30;15.23;;;11.90;;
9918;SDS011;4998;51.024;13.828;2023-03-01T14:45:57;17.93;;;13.17;;
9918;SDS011;4998;51.024;13.828;2023-03-01T14:48:24;19.30;;;13.20;;
9918;SDS011;4998;51.024;13.828;2023-03-01T14:50:53;21.43;;;13.67;;
9918;SDS011;4998;51.024;13.828;2023-03-01T14:53:23;21.03;;;14.87;;
9918;SDS011;4998;51.024;13.828;2023-03-01T14:55:53;20.80;;;15.20;;
9918;SDS011;4998;51.024;13.828;2023-03-01T14:58:21;19.57;;;13.50;;
9918;SDS011;4998;51.024;13.828;2023-03-01T15:00:51;19.00;;;14.10;;
9918;SDS011;4998;51.024;13.828;2023-03-01T15:03:23;19.47;;;14.13;;
9918;SDS011;4998;51.024;13.828;2023-03-01T15:05:52;20.33;;;14.30;;
9918;SDS011;4998;51.024;13.828;2023-03-01T15:08:20;15.97;;;12.47;;
9918;SDS011;4998;51.024;13.828;2023-03-01T15:10:57;18.07;;;12.37;;
9918;SDS011;4998;51.024;13.828;2023-03-01T15:13:29;17.40;;;11.90;;
9918;SDS011;4998;51.024;13.828;2023-03-01T15:16:01;17.50;;;11.97;;
9918;SDS011;4998;51.024;13.828;2023-03-01T15:18:32;16.17;;;11.93;;
9918;SDS011;4998;51.024;13.828;2023-03-01T15:21:05;15.67;;;12.47;;
9918;SDS011;4998;51.024;13.828;2023-03-01T15:23:35;16.80;;;12.63;;